createdAt,value
2023-01-01T00:00:40.302Z,18.43
2023-01-01T00:03:26.895Z,13.73
2023-01-01T00:06:15.563Z,12.93
2023-01-01T00:09:19.171Z,12.90
2023-01-01T00:12:07.609Z,12.70
2023-01-01T00:14:53.693Z,15.50
2023-01-01T00:17:40.217Z,14.43
2023-01-01T00:20:31.524Z,14.97
2023-01-01T00:23:21.228Z,10.17
2023-01-01T00:26:11.234Z,12.70
2023-01-01T00:28:58.940Z,12.70
2023-01-01T00:31:45.781Z,10.93
2023-01-01T00:34:32.603Z,10.87
2023-01-01T00:37:18.713Z,11.20
2023-01-01T00:40:05.495Z,13.03
2023-01-01T00:42:51.798Z,13.43
2023-01-01T00:45:39.379Z,12.80
2023-01-01T00:48:26.085Z,16.43
2023-01-01T00:51:12.524Z,12.90
2023-01-01T00:53:58.705Z,14.07
2023-01-01T00:56:45.096Z,10.20
2023-01-01T00:59:31.260Z,12.50
2023-01-01T01:02:19.321Z,12.47
2023-01-01T01:05:06.016Z,11.20
2023-01-01T01:07:52.375Z,9.30
2023-01-01T01:10:38.752Z,11.67
2023-01-01T01:13:25.117Z,11.17
2023-01-01T01:16:11.938Z,13.27
2023-01-01T01:19:00.857Z,12.53
2023-01-01T01:21:48.351Z,13.83
2023-01-01T01:24:34.691Z,14.23
2023-01-01T01:27:21.063Z,11.70
2023-01-01T01:30:08.242Z,10.83
2023-01-01T01:32:55.706Z,11.00
2023-01-01T01:35:43.461Z,9.03
2023-01-01T01:38:29.725Z,8.40
2023-01-01T01:41:27.332Z,8.37
2023-01-01T01:44:28.939Z,8.77
2023-01-01T01:47:16.444Z,7.63
2023-01-01T01:50:05.115Z,8.33
2023-01-01T01:52:59.741Z,7.30
2023-01-01T01:55:48.854Z,5.83
2023-01-01T01:58:35.442Z,8.23
2023-01-01T02:01:22.075Z,8.60
2023-01-01T02:04:08.598Z,13.47
2023-01-01T02:06:55.257Z,13.33
2023-01-01T02:09:43.252Z,9.33
2023-01-01T02:12:29.823Z,8.63
2023-01-01T02:15:16.265Z,7.73
2023-01-01T02:18:03.761Z,13.10
2023-01-01T02:20:53.670Z,16.07
2023-01-01T02:23:48.062Z,18.67
2023-01-01T02:26:43.256Z,17.27
2023-01-01T02:29:43.624Z,15.53
2023-01-01T02:32:32.420Z,12.40
2023-01-01T02:35:36.573Z,15.03
2023-01-01T02:38:24.869Z,12.77
2023-01-01T02:41:13.523Z,11.07
2023-01-01T02:46:46.373Z,8.50
2023-01-01T02:49:32.810Z,6.63
2023-01-01T02:52:27.458Z,7.40
2023-01-01T02:55:18.033Z,6.73
2023-01-01T02:58:22.086Z,6.37
2023-01-01T03:01:12.592Z,6.23
2023-01-01T03:04:08.857Z,5.70
2023-01-01T03:06:57.076Z,6.70
2023-01-01T03:09:45.307Z,7.90
2023-01-01T03:12:40.654Z,6.50
2023-01-01T03:15:29.771Z,7.80
2023-01-01T03:18:17.994Z,10.13
2023-01-01T03:21:07.393Z,14.90
2023-01-01T03:23:55.073Z,12.37
2023-01-01T03:26:42.536Z,11.13
2023-01-01T03:29:30.496Z,9.40
2023-01-01T03:32:19.937Z,8.60
2023-01-01T03:35:06.451Z,6.70
2023-01-01T03:37:56.029Z,6.27
2023-01-01T03:40:43.668Z,5.77
2023-01-01T03:43:35.882Z,5.40
2023-01-01T03:46:24.818Z,5.67
2023-01-01T03:49:12.349Z,5.17
2023-01-01T03:52:02.260Z,5.33
2023-01-01T03:54:58.480Z,6.37
2023-01-01T03:57:47.780Z,6.50
2023-01-01T04:00:35.683Z,5.70
2023-01-01T04:03:23.384Z,8.80
2023-01-01T04:06:10.111Z,10.47
2023-01-01T04:08:59.789Z,12.07
2023-01-01T04:12:04.347Z,11.50
2023-01-01T04:14:50.433Z,9.83
2023-01-01T04:17:36.565Z,7.63
2023-01-01T04:20:22.916Z,7.47
2023-01-01T04:23:09.219Z,7.33
2023-01-01T04:25:55.640Z,12.10
2023-01-01T04:28:44.245Z,11.43
2023-01-01T04:31:30.730Z,10.07
2023-01-01T04:34:17.490Z,7.17
2023-01-01T04:37:08.226Z,6.17
2023-01-01T04:39:57.839Z,8.50
2023-01-01T04:42:44.519Z,7.30
2023-01-01T04:45:32.378Z,5.73
2023-01-01T04:48:18.944Z,6.97
2023-01-01T04:51:05.959Z,5.63
2023-01-01T04:53:52.446Z,4.90
2023-01-01T04:56:38.810Z,5.00
2023-01-01T04:59:25.345Z,4.23
2023-01-01T05:02:13.282Z,4.90
2023-01-01T05:04:59.608Z,5.30
2023-01-01T05:07:46.500Z,5.37
2023-01-01T05:10:33.009Z,4.10
2023-01-01T05:13:19.407Z,4.43
2023-01-01T05:16:06.425Z,6.20
2023-01-01T05:18:53.893Z,10.20
2023-01-01T05:21:40.943Z,9.97
2023-01-01T05:24:27.521Z,7.17
2023-01-01T05:27:13.809Z,5.10
2023-01-01T05:30:00.492Z,4.70
2023-01-01T05:32:46.921Z,5.33
2023-01-01T05:35:34.682Z,6.70
2023-01-01T05:38:21.028Z,6.40
2023-01-01T05:41:08.152Z,5.23
2023-01-01T05:43:55.221Z,10.43
2023-01-01T05:46:41.584Z,11.30
2023-01-01T05:49:28.356Z,9.43
2023-01-01T05:52:16.211Z,10.07
2023-01-01T05:55:03.920Z,9.50
2023-01-01T05:57:50.334Z,11.30
2023-01-01T06:00:36.730Z,10.60
2023-01-01T06:03:23.633Z,6.00
2023-01-01T06:06:10.910Z,5.20
2023-01-01T06:08:59.835Z,6.00
2023-01-01T06:11:46.480Z,9.47
2023-01-01T06:14:33.121Z,9.27
2023-01-01T06:17:19.706Z,9.63
2023-01-01T06:20:06.548Z,9.93
2023-01-01T06:22:53.105Z,8.23
2023-01-01T06:25:40.872Z,9.27
2023-01-01T06:28:27.460Z,10.63
2023-01-01T06:31:14.845Z,7.47
2023-01-01T06:34:01.607Z,9.63
2023-01-01T06:36:48.320Z,7.50
2023-01-01T06:39:35.067Z,8.13
2023-01-01T06:42:22.653Z,9.20
2023-01-01T06:45:09.940Z,5.33
2023-01-01T06:47:58.115Z,6.53
2023-01-01T06:50:44.465Z,6.60
2023-01-01T06:53:30.899Z,7.27
2023-01-01T06:56:17.482Z,5.73
2023-01-01T06:59:05.489Z,9.83
2023-01-01T07:01:51.556Z,9.50
2023-01-01T07:04:38.135Z,7.67
2023-01-01T07:07:24.451Z,9.20
2023-01-01T07:10:10.681Z,8.60
2023-01-01T07:12:56.954Z,10.10
2023-01-01T07:15:44.770Z,8.70
2023-01-01T07:18:31.003Z,7.00
2023-01-01T07:21:29.247Z,9.87
2023-01-01T07:24:17.233Z,9.70
2023-01-01T07:27:03.736Z,10.57
2023-01-01T07:29:50.147Z,9.63
2023-01-01T07:32:37.912Z,16.60
2023-01-01T07:35:24.467Z,12.33
2023-01-01T07:38:10.841Z,11.13
2023-01-01T07:40:57.047Z,11.07
2023-01-01T07:43:43.542Z,10.07
2023-01-01T07:46:30.391Z,10.53
2023-01-01T07:49:18.471Z,10.50
2023-01-01T07:52:05.283Z,10.53
2023-01-01T07:54:51.587Z,9.53
2023-01-01T07:57:37.670Z,11.07
2023-01-01T08:00:24.218Z,11.90
2023-01-01T08:03:10.698Z,13.07
2023-01-01T08:05:58.313Z,12.13
2023-01-01T08:08:44.791Z,11.27
2023-01-01T08:11:31.671Z,11.20
2023-01-01T08:14:17.748Z,11.50
2023-01-01T08:17:04.298Z,11.43
2023-01-01T08:19:52.075Z,12.03
2023-01-01T08:22:39.840Z,12.00
2023-01-01T08:25:26.124Z,10.30
2023-01-01T08:28:12.421Z,11.50
2023-01-01T08:30:59.538Z,12.17
2023-01-01T08:33:46.093Z,10.17
2023-01-01T08:36:32.650Z,11.63
2023-01-01T08:39:20.045Z,10.80
2023-01-01T08:42:11.977Z,11.40
2023-01-01T08:44:58.694Z,11.20
2023-01-01T08:47:45.268Z,10.97
2023-01-01T08:50:31.640Z,10.77
2023-01-01T08:53:18.306Z,9.37
2023-01-01T08:56:07.307Z,10.47
2023-01-01T08:58:55.173Z,9.23
2023-01-01T09:01:45.543Z,7.13
2023-01-01T09:04:31.944Z,8.67
2023-01-01T09:07:18.795Z,9.57
2023-01-01T09:10:05.271Z,7.93
2023-01-01T09:12:53.106Z,7.37
2023-01-01T09:15:39.688Z,7.87
2023-01-01T09:18:26.068Z,7.30
2023-01-01T09:21:12.542Z,7.33
2023-01-01T09:23:58.657Z,8.27
2023-01-01T09:26:46.364Z,9.50
2023-01-01T09:29:35.193Z,8.17
2023-01-01T09:32:21.692Z,7.93
2023-01-01T09:35:08.293Z,6.40
2023-01-01T09:37:54.697Z,7.17
2023-01-01T09:40:51.362Z,7.07
2023-01-01T09:43:40.903Z,6.20
2023-01-01T09:46:31.955Z,7.20
2023-01-01T09:49:20.017Z,7.50
2023-01-01T09:52:06.915Z,5.23
2023-01-01T09:54:56.158Z,4.80
2023-01-01T09:57:42.621Z,5.43
2023-01-01T10:00:31.628Z,5.93
2023-01-01T10:03:25.401Z,4.87
2023-01-01T10:06:19.523Z,4.43
2023-01-01T10:09:11.144Z,4.20
2023-01-01T10:12:00.058Z,4.70
2023-01-01T10:14:47.664Z,4.63
2023-01-01T10:17:36.229Z,6.10
2023-01-01T10:20:25.447Z,5.03
2023-01-01T10:23:15.722Z,3.83
2023-01-01T10:26:04.711Z,3.87
2023-01-01T10:28:55.350Z,4.17
2023-01-01T10:31:43.150Z,4.40
2023-01-01T10:34:32.337Z,4.70
2023-01-01T10:37:20.724Z,4.57
2023-01-01T10:40:09.042Z,3.70
2023-01-01T10:42:55.889Z,2.97
2023-01-01T10:45:45.882Z,3.60
2023-01-01T10:48:32.950Z,5.50
2023-01-01T10:51:24.912Z,4.40
2023-01-01T10:54:27.865Z,3.07
2023-01-01T10:57:19.050Z,4.00
2023-01-01T11:00:13.618Z,3.00
2023-01-01T11:03:15.172Z,3.27
2023-01-01T11:06:07.005Z,2.97
2023-01-01T11:08:54.737Z,3.40
2023-01-01T11:11:43.617Z,4.40
2023-01-01T11:14:31.289Z,4.13
2023-01-01T11:17:22.532Z,4.07
2023-01-01T11:20:18.112Z,3.90
2023-01-01T11:23:19.183Z,4.90
2023-01-01T11:26:07.258Z,4.10
2023-01-01T11:29:02.608Z,3.53
2023-01-01T11:31:49.354Z,3.60
2023-01-01T11:34:37.620Z,4.40
2023-01-01T11:37:27.326Z,3.77
2023-01-01T11:40:17.854Z,6.03
2023-01-01T11:43:05.637Z,3.57
2023-01-01T11:45:55.558Z,4.27
2023-01-01T11:48:43.489Z,3.67
2023-01-01T11:51:30.997Z,4.47
2023-01-01T11:54:25.863Z,5.17
2023-01-01T11:57:16.154Z,4.00
2023-01-01T12:00:03.921Z,4.03
2023-01-01T12:02:54.394Z,4.60
2023-01-01T12:05:45.617Z,3.80
2023-01-01T12:08:34.461Z,4.37
2023-01-01T12:11:24.885Z,3.57
2023-01-01T12:14:16.778Z,4.00
2023-01-01T12:17:05.512Z,4.23
2023-01-01T12:19:57.701Z,4.07
2023-01-01T12:22:43.801Z,4.80
2023-01-01T12:25:33.853Z,3.80
2023-01-01T12:28:26.499Z,3.47
2023-01-01T12:31:17.004Z,4.83
2023-01-01T12:34:08.861Z,3.73
2023-01-01T12:37:00.177Z,3.17
2023-01-01T12:39:57.451Z,3.33
2023-01-01T12:42:47.326Z,3.17
2023-01-01T12:45:48.260Z,3.47
2023-01-01T12:48:46.986Z,3.27
2023-01-01T12:51:39.000Z,3.33
2023-01-01T12:54:55.620Z,6.07
2023-01-01T12:57:45.835Z,3.17
2023-01-01T13:00:32.988Z,2.50
2023-01-01T13:03:20.152Z,2.40
2023-01-01T13:06:07.937Z,2.73
2023-01-01T13:08:57.959Z,2.80
2023-01-01T13:11:45.667Z,2.60
2023-01-01T13:14:38.463Z,2.50
2023-01-01T13:17:25.753Z,2.83
2023-01-01T13:20:17.494Z,2.60
2023-01-01T13:23:05.009Z,2.47
2023-01-01T13:26:11.286Z,2.80
2023-01-01T13:29:13.319Z,2.90
2023-01-01T13:32:02.690Z,2.93
2023-01-01T13:35:06.819Z,3.23
2023-01-01T13:37:53.520Z,2.20
2023-01-01T13:40:51.046Z,2.50
2023-01-01T13:43:37.768Z,2.23
2023-01-01T13:46:29.378Z,2.43
2023-01-01T13:49:24.512Z,2.70
2023-01-01T13:52:25.176Z,2.60
2023-01-01T13:55:38.400Z,2.77
2023-01-01T13:58:39.296Z,2.73
2023-01-01T14:01:34.649Z,3.37
2023-01-01T14:04:41.992Z,4.23
2023-01-01T14:07:51.335Z,5.07
2023-01-01T14:10:38.590Z,4.43
2023-01-01T14:13:29.804Z,5.37
2023-01-01T14:16:16.895Z,6.67
2023-01-01T14:19:03.632Z,4.47
2023-01-01T14:21:49.824Z,4.70
2023-01-01T14:24:39.968Z,4.27
2023-01-01T14:27:28.253Z,4.57
2023-01-01T14:30:17.203Z,10.63
2023-01-01T14:33:04.126Z,81.63
2023-01-01T14:35:54.755Z,25.30
2023-01-01T14:38:44.158Z,14.37
2023-01-01T14:41:32.851Z,16.00
2023-01-01T14:44:20.457Z,38.50
2023-01-01T14:47:16.775Z,43.67
2023-01-01T14:50:05.781Z,51.70
2023-01-01T14:52:53.610Z,94.50
2023-01-01T14:55:41.184Z,29.27
2023-01-01T14:58:29.490Z,26.53
2023-01-01T15:01:16.813Z,10.57
2023-01-01T15:04:04.224Z,14.43
2023-01-01T15:06:54.094Z,13.10
2023-01-01T15:09:40.383Z,74.17
2023-01-01T15:12:27.100Z,63.37
2023-01-01T15:15:28.272Z,114.43
2023-01-01T15:18:48.191Z,66.83
2023-01-01T15:21:38.203Z,46.80
2023-01-01T15:24:27.685Z,240.07
2023-01-01T15:27:21.931Z,164.03
2023-01-01T15:30:13.747Z,153.80
2023-01-01T15:33:07.648Z,115.50
2023-01-01T15:36:00.824Z,276.83
2023-01-01T15:38:49.410Z,231.67
2023-01-01T15:41:45.899Z,183.93
2023-01-01T15:44:35.294Z,233.80
2023-01-01T15:47:26.555Z,359.43
2023-01-01T15:50:15.131Z,278.77
2023-01-01T15:53:03.323Z,309.50
2023-01-01T15:55:53.374Z,203.73
2023-01-01T15:58:42.123Z,61.93
2023-01-01T16:01:29.131Z,74.10
2023-01-01T16:04:23.934Z,65.90
2023-01-01T16:07:21.003Z,360.23
2023-01-01T16:10:14.207Z,93.80
2023-01-01T16:13:02.130Z,77.33
2023-01-01T16:15:51.984Z,232.53
2023-01-01T16:18:38.736Z,310.97
2023-01-01T16:21:26.453Z,177.70
2023-01-01T16:24:14.344Z,258.30
2023-01-01T16:27:00.835Z,185.40
2023-01-01T16:29:54.454Z,207.13
2023-01-01T16:32:41.238Z,105.03
2023-01-01T16:35:27.366Z,508.87
2023-01-01T16:38:13.590Z,138.40
2023-01-01T16:41:00.152Z,96.17
2023-01-01T16:43:47.167Z,120.87
2023-01-01T16:46:34.995Z,161.70
2023-01-01T16:49:21.418Z,266.07
2023-01-01T16:52:07.883Z,257.07
2023-01-01T16:54:54.459Z,32.73
2023-01-01T16:57:40.652Z,43.70
2023-01-01T17:00:27.250Z,29.77
2023-01-01T17:03:18.092Z,57.17
2023-01-01T17:06:05.536Z,271.40
2023-01-01T17:08:52.174Z,151.33
2023-01-01T17:11:39.504Z,59.60
2023-01-01T17:14:26.131Z,165.17
2023-01-01T17:17:12.205Z,470.37
2023-01-01T17:19:59.983Z,227.00
2023-01-01T17:22:46.561Z,273.93
2023-01-01T17:25:33.408Z,194.50
2023-01-01T17:28:19.788Z,228.63
2023-01-01T17:31:06.838Z,174.40
2023-01-01T17:33:53.481Z,130.03
2023-01-01T17:36:41.463Z,140.57
2023-01-01T17:39:27.956Z,61.77
2023-01-01T17:42:13.965Z,111.37
2023-01-01T17:45:00.465Z,196.17
2023-01-01T17:47:46.617Z,142.30
2023-01-01T17:50:32.969Z,198.43
2023-01-01T17:53:21.050Z,214.20
2023-01-01T17:56:07.744Z,191.57
2023-01-01T17:58:54.905Z,149.63
2023-01-01T18:01:42.269Z,119.87
2023-01-01T18:04:28.913Z,178.03
2023-01-01T18:07:15.182Z,267.10
2023-01-01T18:10:03.079Z,141.53
2023-01-01T18:12:49.431Z,49.60
2023-01-01T18:15:37.014Z,52.33
2023-01-01T18:18:23.250Z,39.23
2023-01-01T18:21:12.143Z,36.87
2023-01-01T18:23:59.250Z,101.17
2023-01-01T18:26:47.217Z,64.83
2023-01-01T18:29:33.687Z,40.30
2023-01-01T18:32:20.145Z,71.53
2023-01-01T18:35:06.743Z,44.03
2023-01-01T18:37:53.391Z,17.27
2023-01-01T18:40:39.919Z,19.33
2023-01-01T18:43:27.717Z,11.67
2023-01-01T18:46:14.088Z,9.27
2023-01-01T18:49:01.630Z,11.40
2023-01-01T18:51:49.661Z,11.63
2023-01-01T18:54:36.763Z,19.67
2023-01-01T18:57:29.216Z,29.87
2023-01-01T19:00:22.825Z,21.63
2023-01-01T19:03:13.648Z,22.47
2023-01-01T19:06:00.522Z,19.47
2023-01-01T19:08:46.688Z,16.27
2023-01-01T19:11:33.279Z,12.30
2023-01-01T19:14:20.563Z,9.90
2023-01-01T19:17:14.024Z,10.33
2023-01-01T19:20:00.631Z,31.00
2023-01-01T19:22:47.782Z,38.37
2023-01-01T19:25:36.531Z,33.37
2023-01-01T19:28:33.730Z,29.80
2023-01-01T19:31:19.843Z,24.33
2023-01-01T19:34:07.622Z,21.03
2023-01-01T19:36:54.174Z,16.97
2023-01-01T19:39:40.376Z,11.30
2023-01-01T19:42:26.562Z,8.57
2023-01-01T19:45:12.970Z,10.73
2023-01-01T19:47:59.138Z,21.77
2023-01-01T19:50:47.542Z,26.30
2023-01-01T19:53:33.842Z,26.17
2023-01-01T19:56:20.370Z,16.67
2023-01-01T19:59:06.509Z,17.13
2023-01-01T20:02:17.646Z,13.97
2023-01-01T20:04:59.399Z,11.33
2023-01-01T20:07:47.254Z,12.43
2023-01-01T20:10:33.826Z,20.30
2023-01-01T20:13:20.416Z,17.63
2023-01-01T20:16:07.157Z,12.03
2023-01-01T20:18:53.542Z,15.70
2023-01-01T20:21:57.281Z,20.27
2023-01-01T20:24:45.161Z,20.40
2023-01-01T20:27:31.727Z,19.80
2023-01-01T20:30:18.282Z,18.50
2023-01-01T20:33:04.522Z,16.30
2023-01-01T20:36:08.165Z,15.53
2023-01-01T20:38:54.598Z,15.10
2023-01-01T20:41:42.416Z,18.13
2023-01-01T20:44:28.965Z,16.40
2023-01-01T20:47:15.789Z,16.40
2023-01-01T20:50:02.445Z,15.77
2023-01-01T20:52:48.794Z,14.47
2023-01-01T20:55:35.338Z,11.37
2023-01-01T20:58:23.321Z,10.80
2023-01-01T21:01:09.875Z,23.00
2023-01-01T21:03:56.360Z,36.67
2023-01-01T21:06:42.578Z,38.10
2023-01-01T21:09:28.701Z,35.90
2023-01-01T21:12:14.949Z,28.57
2023-01-01T21:15:02.965Z,28.00
2023-01-01T21:17:49.364Z,26.77
2023-01-01T21:20:36.335Z,21.07
2023-01-01T21:23:25.228Z,15.67
2023-01-01T21:26:16.255Z,16.80
2023-01-01T21:29:03.131Z,15.00
2023-01-01T21:31:53.385Z,15.37
2023-01-01T21:34:41.191Z,14.63
2023-01-01T21:37:45.988Z,14.97
2023-01-01T21:40:38.603Z,17.27
2023-01-01T21:43:34.883Z,18.23
2023-01-01T21:46:35.269Z,17.83
2023-01-01T21:49:25.255Z,16.70
2023-01-01T21:52:16.706Z,15.17
2023-01-01T21:55:02.781Z,14.33
2023-01-01T21:58:12.221Z,16.17
2023-01-01T22:01:00.527Z,18.27
2023-01-01T22:03:46.578Z,18.50
2023-01-01T22:06:37.087Z,19.20
2023-01-01T22:09:24.272Z,19.33
2023-01-01T22:12:18.893Z,15.57
2023-01-01T22:15:23.435Z,15.80
2023-01-01T22:18:23.121Z,15.83
2023-01-01T22:21:13.817Z,13.57
2023-01-01T22:24:01.502Z,13.60
2023-01-01T22:26:47.894Z,13.20
2023-01-01T22:29:34.852Z,14.80
2023-01-01T22:32:24.141Z,14.37
2023-01-01T22:35:14.424Z,15.13
2023-01-01T22:38:01.716Z,13.33
2023-01-01T22:40:51.202Z,14.47
2023-01-01T22:43:39.875Z,12.27
2023-01-01T22:46:28.802Z,11.23
2023-01-01T22:49:18.425Z,12.00
2023-01-01T22:52:05.307Z,11.30
2023-01-01T22:54:52.083Z,11.07
2023-01-01T22:57:39.893Z,23.97
2023-01-01T23:00:26.174Z,21.03
2023-01-01T23:03:12.967Z,21.13
2023-01-01T23:06:00.007Z,23.70
2023-01-01T23:08:46.107Z,22.40
2023-01-01T23:11:32.674Z,19.13
2023-01-01T23:14:39.301Z,22.53
2023-01-01T23:17:25.639Z,23.43
2023-01-01T23:20:13.246Z,18.77
2023-01-01T23:23:00.026Z,20.80
2023-01-01T23:25:46.823Z,17.33
2023-01-01T23:28:33.638Z,15.07
2023-01-01T23:31:25.241Z,14.80
2023-01-01T23:34:12.907Z,12.93
2023-01-01T23:36:59.269Z,12.03
2023-01-01T23:39:45.936Z,11.97
2023-01-01T23:42:32.444Z,8.60
2023-01-01T23:45:19.200Z,8.73
2023-01-01T23:48:07.253Z,11.77
2023-01-01T23:50:53.522Z,10.47
2023-01-01T23:53:39.878Z,12.37
2023-01-01T23:56:26.190Z,10.33
2023-01-01T23:59:13.112Z,11.73
